sensor_id;sensor_type;location;lat;lon;timestamp;pressure;altitude;pressure_sealevel;temperature;humidity
37904;BME280;23738;50.422;18.758;2023-05-03T00:01:09;99151.47;;;11.76;69.99
37904;BME280;23738;50.422;18.758;2023-05-03T00:03:38;99147.15;;;11.74;69.95
37904;BME280;23738;50.422;18.758;2023-05-03T00:06:12;99144.79;;;11.73;70.02
37904;BME280;23738;50.422;18.758;2023-05-03T00:08:42;99143.46;;;11.74;69.84
37904;BME280;23738;50.422;18.758;2023-05-03T00:11:11;99142.91;;;11.76;70.02
37904;BME280;23738;50.422;18.758;2023-05-03T00:13:41;99142.42;;;11.74;70.11
37904;BME280;23738;50.422;18.758;2023-05-03T00:16:10;99142.29;;;11.73;70.26
37904;BME280;23738;50.422;18.758;2023-05-03T00:18:39;99140.38;;;11.75;70.16
37904;BME280;23738;50.422;18.758;2023-05-03T00:21:08;99138.39;;;11.75;70.17
37904;BME280;23738;50.422;18.758;2023-05-03T00:23:38;99135.99;;;11.76;70.27
37904;BME280;23738;50.422;18.758;2023-05-03T00:26:08;99135.91;;;11.77;70.46
37904;BME280;23738;50.422;18.758;2023-05-03T00:28:37;99133.52;;;11.80;70.74
37904;BME280;23738;50.422;18.758;2023-05-03T00:31:10;99133.75;;;11.85;70.96
37904;BME280;23738;50.422;18.758;2023-05-03T00:33:39;99137.09;;;11.86;70.84
37904;BME280;23738;50.422;18.758;2023-05-03T00:36:10;99134.19;;;11.85;70.97
37904;BME280;23738;50.422;18.758;2023-05-03T00:38:40;99138.32;;;11.83;70.74
37904;BME280;23738;50.422;18.758;2023-05-03T00:41:11;99132.82;;;11.80;70.85
37904;BME280;23738;50.422;18.758;2023-05-03T00:43:41;99134.85;;;11.82;71.03
37904;BME280;23738;50.422;18.758;2023-05-03T00:46:11;99132.66;;;11.87;71.29
37904;BME280;23738;50.422;18.758;2023-05-03T00:48:40;99136.02;;;11.90;71.24
37904;BME280;23738;50.422;18.758;2023-05-03T00:51:12;99134.71;;;11.90;71.21
37904;BME280;23738;50.422;18.758;2023-05-03T00:53:43;99135.38;;;11.92;71.35
37904;BME280;23738;50.422;18.758;2023-05-03T00:56:14;99131.54;;;11.92;71.39
37904;BME280;23738;50.422;18.758;2023-05-03T00:58:47;99132.92;;;11.89;71.21
37904;BME280;23738;50.422;18.758;2023-05-03T01:01:16;99136.05;;;11.88;71.32
37904;BME280;23738;50.422;18.758;2023-05-03T01:03:46;99138.73;;;11.88;71.20
37904;BME280;23738;50.422;18.758;2023-05-03T01:06:24;99137.20;;;11.90;71.46
37904;BME280;23738;50.422;18.758;2023-05-03T01:09:00;99133.91;;;11.93;71.40
37904;BME280;23738;50.422;18.758;2023-05-03T01:11:36;99138.80;;;11.92;71.43
37904;BME280;23738;50.422;18.758;2023-05-03T01:14:18;99139.77;;;11.91;71.55
37904;BME280;23738;50.422;18.758;2023-05-03T01:16:55;99138.51;;;11.90;71.49
37904;BME280;23738;50.422;18.758;2023-05-03T01:19:27;99138.34;;;11.90;71.55
37904;BME280;23738;50.422;18.758;2023-05-03T01:22:09;99139.82;;;11.86;71.21
37904;BME280;23738;50.422;18.758;2023-05-03T01:24:46;99135.08;;;11.85;71.27
37904;BME280;23738;50.422;18.758;2023-05-03T01:27:19;99134.95;;;11.84;71.46
37904;BME280;23738;50.422;18.758;2023-05-03T01:29:48;99140.04;;;11.87;71.59
37904;BME280;23738;50.422;18.758;2023-05-03T01:32:23;99143.83;;;11.88;71.78
37904;BME280;23738;50.422;18.758;2023-05-03T01:35:03;99146.92;;;11.87;71.62
37904;BME280;23738;50.422;18.758;2023-05-03T01:37:33;99149.52;;;11.85;71.62
37904;BME280;23738;50.422;18.758;2023-05-03T01:40:05;99153.59;;;11.82;71.83
37904;BME280;23738;50.422;18.758;2023-05-03T01:42:37;99156.95;;;11.79;71.71
37904;BME280;23738;50.422;18.758;2023-05-03T01:45:08;99156.27;;;11.79;71.89
37904;BME280;23738;50.422;18.758;2023-05-03T01:47:39;99161.86;;;11.81;72.17
37904;BME280;23738;50.422;18.758;2023-05-03T01:50:09;99159.09;;;11.83;72.28
37904;BME280;23738;50.422;18.758;2023-05-03T01:52:38;99158.95;;;11.84;72.39
37904;BME280;23738;50.422;18.758;2023-05-03T01:55:09;99158.90;;;11.84;72.43
37904;BME280;23738;50.422;18.758;2023-05-03T01:57:38;99158.91;;;11.82;72.52
37904;BME280;23738;50.422;18.758;2023-05-03T02:00:10;99161.67;;;11.78;72.43
37904;BME280;23738;50.422;18.758;2023-05-03T02:02:39;99161.73;;;11.76;72.57
37904;BME280;23738;50.422;18.758;2023-05-03T02:05:10;99161.56;;;11.76;72.53
37904;BME280;23738;50.422;18.758;2023-05-03T02:07:40;99162.52;;;11.77;72.78
37904;BME280;23738;50.422;18.758;2023-05-03T02:10:10;99162.16;;;11.78;72.82
37904;BME280;23738;50.422;18.758;2023-05-03T02:12:42;99161.57;;;11.80;72.74
37904;BME280;23738;50.422;18.758;2023-05-03T02:15:12;99158.46;;;11.76;72.94
37904;BME280;23738;50.422;18.758;2023-05-03T02:17:42;99161.17;;;11.72;72.95
37904;BME280;23738;50.422;18.758;2023-05-03T02:20:13;99158.97;;;11.67;72.98
37904;BME280;23738;50.422;18.758;2023-05-03T02:22:42;99161.44;;;11.63;72.94
37904;BME280;23738;50.422;18.758;2023-05-03T02:25:11;99165.40;;;11.61;73.06
37904;BME280;23738;50.422;18.758;2023-05-03T02:27:40;99166.79;;;11.61;73.15
37904;BME280;23738;50.422;18.758;2023-05-03T02:30:11;99165.07;;;11.64;73.52
37904;BME280;23738;50.422;18.758;2023-05-03T02:32:41;99168.33;;;11.66;73.54
37904;BME280;23738;50.422;18.758;2023-05-03T02:35:10;99169.02;;;11.67;73.52
37904;BME280;23738;50.422;18.758;2023-05-03T02:37:40;99169.01;;;11.64;73.60
37904;BME280;23738;50.422;18.758;2023-05-03T02:40:11;99163.45;;;11.61;73.54
37904;BME280;23738;50.422;18.758;2023-05-03T02:42:40;99170.65;;;11.61;73.57
37904;BME280;23738;50.422;18.758;2023-05-03T02:45:12;99166.08;;;11.63;73.70
37904;BME280;23738;50.422;18.758;2023-05-03T02:47:41;99171.88;;;11.70;73.88
37904;BME280;23738;50.422;18.758;2023-05-03T02:50:11;99167.89;;;11.75;74.08
37904;BME280;23738;50.422;18.758;2023-05-03T02:52:40;99174.04;;;11.77;74.02
37904;BME280;23738;50.422;18.758;2023-05-03T02:55:10;99172.58;;;11.75;74.01
37904;BME280;23738;50.422;18.758;2023-05-03T02:57:39;99171.56;;;11.74;74.13
37904;BME280;23738;50.422;18.758;2023-05-03T03:00:12;99173.24;;;11.73;74.04
37904;BME280;23738;50.422;18.758;2023-05-03T03:02:42;99176.46;;;11.74;74.09
37904;BME280;23738;50.422;18.758;2023-05-03T03:05:11;99176.48;;;11.74;74.27
37904;BME280;23738;50.422;18.758;2023-05-03T03:07:41;99177.88;;;11.67;74.45
37904;BME280;23738;50.422;18.758;2023-05-03T03:10:11;99178.94;;;11.63;74.36
37904;BME280;23738;50.422;18.758;2023-05-03T03:12:40;99180.92;;;11.58;74.38
37904;BME280;23738;50.422;18.758;2023-05-03T03:15:11;99179.73;;;11.54;74.40
37904;BME280;23738;50.422;18.758;2023-05-03T03:17:41;99181.07;;;11.52;74.38
37904;BME280;23738;50.422;18.758;2023-05-03T03:20:11;99188.95;;;11.51;74.60
37904;BME280;23738;50.422;18.758;2023-05-03T03:22:40;99187.45;;;11.54;74.64
37904;BME280;23738;50.422;18.758;2023-05-03T03:25:11;99190.33;;;11.56;74.70
37904;BME280;23738;50.422;18.758;2023-05-03T03:27:40;99193.54;;;11.53;74.79
37904;BME280;23738;50.422;18.758;2023-05-03T03:30:11;99192.06;;;11.48;74.68
37904;BME280;23738;50.422;18.758;2023-05-03T03:32:41;99196.75;;;11.44;74.81
37904;BME280;23738;50.422;18.758;2023-05-03T03:35:10;99197.94;;;11.40;74.76
37904;BME280;23738;50.422;18.758;2023-05-03T03:37:40;99195.58;;;11.37;74.70
37904;BME280;23738;50.422;18.758;2023-05-03T03:40:11;99193.73;;;11.32;74.92
37904;BME280;23738;50.422;18.758;2023-05-03T03:42:41;99200.34;;;11.29;74.95
37904;BME280;23738;50.422;18.758;2023-05-03T03:45:11;99202.91;;;11.26;75.23
37904;BME280;23738;50.422;18.758;2023-05-03T03:47:40;99210.75;;;11.21;75.26
37904;BME280;23738;50.422;18.758;2023-05-03T03:50:11;99210.30;;;11.16;75.04
37904;BME280;23738;50.422;18.758;2023-05-03T03:52:40;99214.45;;;11.17;75.36
37904;BME280;23738;50.422;18.758;2023-05-03T03:55:09;99217.35;;;11.19;75.58
37904;BME280;23738;50.422;18.758;2023-05-03T03:57:39;99216.39;;;11.22;75.63
37904;BME280;23738;50.422;18.758;2023-05-03T04:00:11;99220.42;;;11.22;75.69
37904;BME280;23738;50.422;18.758;2023-05-03T04:02:41;99223.60;;;11.17;75.60
37904;BME280;23738;50.422;18.758;2023-05-03T04:05:11;99226.54;;;11.11;75.79
37904;BME280;23738;50.422;18.758;2023-05-03T04:07:40;99228.91;;;11.08;75.65
37904;BME280;23738;50.422;18.758;2023-05-03T04:10:10;99226.77;;;11.08;75.95
37904;BME280;23738;50.422;18.758;2023-05-03T04:12:39;99232.39;;;11.08;75.98
37904;BME280;23738;50.422;18.758;2023-05-03T04:15:11;99233.77;;;11.06;75.62
37904;BME280;23738;50.422;18.758;2023-05-03T04:17:41;99234.09;;;11.06;76.07
37904;BME280;23738;50.422;18.758;2023-05-03T04:20:13;99235.05;;;11.07;76.27
37904;BME280;23738;50.422;18.758;2023-05-03T04:22:42;99241.53;;;11.09;76.05
37904;BME280;23738;50.422;18.758;2023-05-03T04:25:12;99245.08;;;11.05;75.84
37904;BME280;23738;50.422;18.758;2023-05-03T04:27:44;99250.32;;;10.98;75.96
37904;BME280;23738;50.422;18.758;2023-05-03T04:30:14;99256.36;;;10.98;76.83
37904;BME280;23738;50.422;18.758;2023-05-03T04:32:44;99258.81;;;10.95;76.54
37904;BME280;23738;50.422;18.758;2023-05-03T04:35:14;99265.58;;;10.92;76.36
37904;BME280;23738;50.422;18.758;2023-05-03T04:37:45;99266.44;;;10.91;76.35
37904;BME280;23738;50.422;18.758;2023-05-03T04:40:15;99271.73;;;10.89;76.33
37904;BME280;23738;50.422;18.758;2023-05-03T04:42:46;99275.02;;;10.88;76.67
37904;BME280;23738;50.422;18.758;2023-05-03T04:45:16;99274.55;;;10.86;76.48
37904;BME280;23738;50.422;18.758;2023-05-03T04:47:45;99274.27;;;10.83;76.65
37904;BME280;23738;50.422;18.758;2023-05-03T04:50:15;99276.19;;;10.79;76.61
37904;BME280;23738;50.422;18.758;2023-05-03T04:52:44;99279.52;;;10.74;76.89
37904;BME280;23738;50.422;18.758;2023-05-03T04:55:14;99279.69;;;10.66;76.63
37904;BME280;23738;50.422;18.758;2023-05-03T04:57:44;99283.55;;;10.61;76.48
37904;BME280;23738;50.422;18.758;2023-05-03T05:00:15;99286.69;;;10.58;76.25
37904;BME280;23738;50.422;18.758;2023-05-03T05:02:44;99286.88;;;10.60;76.20
37904;BME280;23738;50.422;18.758;2023-05-03T05:05:14;99284.96;;;10.61;76.50
37904;BME280;23738;50.422;18.758;2023-05-03T05:07:44;99291.89;;;10.60;76.69
37904;BME280;23738;50.422;18.758;2023-05-03T05:10:13;99288.55;;;10.56;76.64
37904;BME280;23738;50.422;18.758;2023-05-03T05:12:43;99294.82;;;10.56;76.51
37904;BME280;23738;50.422;18.758;2023-05-03T05:15:13;99296.26;;;10.59;76.59
37904;BME280;23738;50.422;18.758;2023-05-03T05:17:42;99297.48;;;10.59;76.56
37904;BME280;23738;50.422;18.758;2023-05-03T05:20:12;99297.09;;;10.61;76.57
37904;BME280;23738;50.422;18.758;2023-05-03T05:22:42;99299.00;;;10.64;76.55
37904;BME280;23738;50.422;18.758;2023-05-03T05:25:11;99300.42;;;10.64;76.48
37904;BME280;23738;50.422;18.758;2023-05-03T05:27:41;99304.49;;;10.68;76.74
37904;BME280;23738;50.422;18.758;2023-05-03T05:30:11;99310.58;;;10.68;76.51
37904;BME280;23738;50.422;18.758;2023-05-03T05:32:40;99311.48;;;10.69;76.57
37904;BME280;23738;50.422;18.758;2023-05-03T05:35:10;99313.09;;;10.67;76.70
37904;BME280;23738;50.422;18.758;2023-05-03T05:37:40;99316.27;;;10.66;76.35
37904;BME280;23738;50.422;18.758;2023-05-03T05:40:11;99314.77;;;10.66;76.54
37904;BME280;23738;50.422;18.758;2023-05-03T05:42:40;99319.63;;;10.67;76.53
37904;BME280;23738;50.422;18.758;2023-05-03T05:45:11;99319.95;;;10.67;76.58
37904;BME280;23738;50.422;18.758;2023-05-03T05:47:40;99319.89;;;10.71;76.60
37904;BME280;23738;50.422;18.758;2023-05-03T05:50:11;99323.85;;;10.79;76.79
37904;BME280;23738;50.422;18.758;2023-05-03T05:52:40;99323.41;;;10.84;76.39
37904;BME280;23738;50.422;18.758;2023-05-03T05:55:10;99327.66;;;10.94;76.74
37904;BME280;23738;50.422;18.758;2023-05-03T05:57:41;99328.79;;;11.05;76.88
37904;BME280;23738;50.422;18.758;2023-05-03T06:00:13;99332.06;;;11.13;76.78
37904;BME280;23738;50.422;18.758;2023-05-03T06:02:42;99332.98;;;11.19;76.77
37904;BME280;23738;50.422;18.758;2023-05-03T06:05:12;99340.41;;;11.27;76.61
37904;BME280;23738;50.422;18.758;2023-05-03T06:07:41;99342.26;;;11.31;76.58
37904;BME280;23738;50.422;18.758;2023-05-03T06:10:11;99346.40;;;11.40;76.61
37904;BME280;23738;50.422;18.758;2023-05-03T06:12:41;99342.55;;;11.62;76.78
37904;BME280;23738;50.422;18.758;2023-05-03T06:15:10;99345.76;;;11.88;77.03
37904;BME280;23738;50.422;18.758;2023-05-03T06:17:40;99348.95;;;12.18;76.79
37904;BME280;23738;50.422;18.758;2023-05-03T06:20:10;99346.98;;;12.41;76.47
37904;BME280;23738;50.422;18.758;2023-05-03T06:22:40;99340.07;;;12.59;76.03
37904;BME280;23738;50.422;18.758;2023-05-03T06:25:10;99343.16;;;12.75;75.07
37904;BME280;23738;50.422;18.758;2023-05-03T06:27:41;99348.23;;;12.82;75.10
37904;BME280;23738;50.422;18.758;2023-05-03T06:30:12;99346.99;;;12.86;75.28
37904;BME280;23738;50.422;18.758;2023-05-03T06:32:42;99349.90;;;12.93;75.11
37904;BME280;23738;50.422;18.758;2023-05-03T06:35:11;99350.69;;;13.01;75.42
37904;BME280;23738;50.422;18.758;2023-05-03T06:37:40;99355.74;;;13.09;74.85
37904;BME280;23738;50.422;18.758;2023-05-03T06:40:12;99356.58;;;13.06;75.00
37904;BME280;23738;50.422;18.758;2023-05-03T06:42:42;99356.94;;;13.09;74.94
37904;BME280;23738;50.422;18.758;2023-05-03T06:45:12;99362.16;;;13.10;75.03
37904;BME280;23738;50.422;18.758;2023-05-03T06:47:41;99365.27;;;13.12;74.61
37904;BME280;23738;50.422;18.758;2023-05-03T06:50:11;99364.43;;;13.08;74.12
37904;BME280;23738;50.422;18.758;2023-05-03T06:52:40;99364.10;;;13.06;74.40
37904;BME280;23738;50.422;18.758;2023-05-03T06:55:10;99367.55;;;13.08;74.34
37904;BME280;23738;50.422;18.758;2023-05-03T06:57:41;99369.87;;;13.11;74.21
37904;BME280;23738;50.422;18.758;2023-05-03T07:00:13;99369.14;;;13.11;73.90
37904;BME280;23738;50.422;18.758;2023-05-03T07:02:42;99371.67;;;12.99;73.46
37904;BME280;23738;50.422;18.758;2023-05-03T07:05:12;99377.46;;;12.90;73.73
37904;BME280;23738;50.422;18.758;2023-05-03T07:07:41;99382.71;;;12.83;73.15
37904;BME280;23738;50.422;18.758;2023-05-03T07:10:11;99383.52;;;12.70;73.07
37904;BME280;23738;50.422;18.758;2023-05-03T07:12:41;99377.52;;;12.60;73.02
37904;BME280;23738;50.422;18.758;2023-05-03T07:15:11;99385.54;;;12.58;73.37
37904;BME280;23738;50.422;18.758;2023-05-03T07:17:40;99387.41;;;12.57;73.38
37904;BME280;23738;50.422;18.758;2023-05-03T07:20:11;99385.86;;;12.53;72.92
37904;BME280;23738;50.422;18.758;2023-05-03T07:22:40;99387.42;;;12.45;72.99
37904;BME280;23738;50.422;18.758;2023-05-03T07:25:10;99391.48;;;12.39;72.95
37904;BME280;23738;50.422;18.758;2023-05-03T07:27:41;99395.17;;;12.32;72.87
37904;BME280;23738;50.422;18.758;2023-05-03T07:30:12;99393.39;;;12.28;73.07
37904;BME280;23738;50.422;18.758;2023-05-03T07:32:41;99396.80;;;12.32;73.26
37904;BME280;23738;50.422;18.758;2023-05-03T07:35:11;99397.04;;;12.40;73.48
37904;BME280;23738;50.422;18.758;2023-05-03T07:37:40;99394.52;;;12.46;73.40
37904;BME280;23738;50.422;18.758;2023-05-03T07:40:11;99393.94;;;12.52;73.28
37904;BME280;23738;50.422;18.758;2023-05-03T07:42:40;99401.80;;;12.52;72.93
37904;BME280;23738;50.422;18.758;2023-05-03T07:45:10;99405.25;;;12.48;72.65
37904;BME280;23738;50.422;18.758;2023-05-03T07:47:40;99404.79;;;12.50;72.90
37904;BME280;23738;50.422;18.758;2023-05-03T07:50:10;99401.21;;;12.56;72.85
37904;BME280;23738;50.422;18.758;2023-05-03T07:52:40;99399.83;;;12.57;72.55
37904;BME280;23738;50.422;18.758;2023-05-03T07:55:10;99400.94;;;12.57;72.26
37904;BME280;23738;50.422;18.758;2023-05-03T07:57:39;99398.80;;;12.55;72.43
37904;BME280;23738;50.422;18.758;2023-05-03T08:00:11;99399.08;;;12.58;72.45
37904;BME280;23738;50.422;18.758;2023-05-03T08:02:41;99401.03;;;12.67;72.20
37904;BME280;23738;50.422;18.758;2023-05-03T08:05:11;99401.91;;;12.71;72.30
37904;BME280;23738;50.422;18.758;2023-05-03T08:07:41;99398.32;;;12.75;71.66
37904;BME280;23738;50.422;18.758;2023-05-03T08:10:12;99394.83;;;12.84;72.30
37904;BME280;23738;50.422;18.758;2023-05-03T08:12:41;99392.88;;;12.95;72.21
37904;BME280;23738;50.422;18.758;2023-05-03T08:15:12;99394.58;;;13.06;71.93
37904;BME280;23738;50.422;18.758;2023-05-03T08:17:43;99393.77;;;13.14;72.12
37904;BME280;23738;50.422;18.758;2023-05-03T08:20:14;99392.06;;;13.31;72.25
37904;BME280;23738;50.422;18.758;2023-05-03T08:22:43;99387.82;;;13.39;71.45
37904;BME280;23738;50.422;18.758;2023-05-03T08:25:13;99384.30;;;13.35;70.82
37904;BME280;23738;50.422;18.758;2023-05-03T08:27:44;99392.19;;;13.34;70.86
37904;BME280;23738;50.422;18.758;2023-05-03T08:30:14;99392.95;;;13.37;71.06
37904;BME280;23738;50.422;18.758;2023-05-03T08:32:44;99394.31;;;13.46;70.89
37904;BME280;23738;50.422;18.758;2023-05-03T08:35:14;99393.06;;;13.55;71.19
37904;BME280;23738;50.422;18.758;2023-05-03T08:37:43;99397.20;;;13.63;70.87
37904;BME280;23738;50.422;18.758;2023-05-03T08:40:13;99395.75;;;13.60;69.47
37904;BME280;23738;50.422;18.758;2023-05-03T08:42:45;99402.07;;;13.48;69.69
37904;BME280;23738;50.422;18.758;2023-05-03T08:45:15;99403.23;;;13.44;69.97
37904;BME280;23738;50.422;18.758;2023-05-03T08:47:44;99406.32;;;13.43;69.87
37904;BME280;23738;50.422;18.758;2023-05-03T08:50:15;99410.23;;;13.38;69.68
37904;BME280;23738;50.422;18.758;2023-05-03T08:52:44;99413.64;;;13.35;69.35
37904;BME280;23738;50.422;18.758;2023-05-03T08:55:14;99414.89;;;13.31;69.48
37904;BME280;23738;50.422;18.758;2023-05-03T08:57:43;99417.75;;;13.33;69.26
37904;BME280;23738;50.422;18.758;2023-05-03T09:00:15;99417.69;;;13.36;69.09
37904;BME280;23738;50.422;18.758;2023-05-03T09:02:46;99418.11;;;13.34;68.22
37904;BME280;23738;50.422;18.758;2023-05-03T09:05:33;99417.83;;;13.34;68.28
37904;BME280;23738;50.422;18.758;2023-05-03T09:08:04;99420.65;;;13.33;68.46
37904;BME280;23738;50.422;18.758;2023-05-03T09:10:37;99421.12;;;13.37;68.93
37904;BME280;23738;50.422;18.758;2023-05-03T09:13:08;99421.33;;;13.52;68.82
37904;BME280;23738;50.422;18.758;2023-05-03T09:15:38;99419.71;;;13.65;67.77
37904;BME280;23738;50.422;18.758;2023-05-03T09:18:12;99418.33;;;13.67;67.58
37904;BME280;23738;50.422;18.758;2023-05-03T09:20:43;99421.54;;;13.81;68.02
37904;BME280;23738;50.422;18.758;2023-05-03T09:23:22;99426.00;;;13.93;68.02
37904;BME280;23738;50.422;18.758;2023-05-03T09:25:58;99428.11;;;14.03;67.76
37904;BME280;23738;50.422;18.758;2023-05-03T09:28:28;99427.02;;;14.11;67.67
37904;BME280;23738;50.422;18.758;2023-05-03T09:31:07;99421.33;;;14.16;67.26
37904;BME280;23738;50.422;18.758;2023-05-03T09:33:36;99427.55;;;14.24;67.24
37904;BME280;23738;50.422;18.758;2023-05-03T09:36:08;99425.29;;;14.33;67.23
37904;BME280;23738;50.422;18.758;2023-05-03T09:38:38;99431.42;;;14.40;66.65
37904;BME280;23738;50.422;18.758;2023-05-03T09:41:08;99429.34;;;14.41;65.82
37904;BME280;23738;50.422;18.758;2023-05-03T09:43:48;99428.59;;;14.37;66.37
37904;BME280;23738;50.422;18.758;2023-05-03T09:46:18;99431.09;;;14.44;66.62
37904;BME280;23738;50.422;18.758;2023-05-03T09:48:48;99432.29;;;14.47;66.19
37904;BME280;23738;50.422;18.758;2023-05-03T09:51:18;99430.77;;;14.49;66.25
37904;BME280;23738;50.422;18.758;2023-05-03T09:53:48;99430.86;;;14.56;65.90
37904;BME280;23738;50.422;18.758;2023-05-03T09:56:18;99430.30;;;14.62;65.69
37904;BME280;23738;50.422;18.758;2023-05-03T09:58:53;99429.02;;;14.62;64.04
37904;BME280;23738;50.422;18.758;2023-05-03T10:01:24;99428.42;;;14.67;64.67
37904;BME280;23738;50.422;18.758;2023-05-03T10:03:57;99429.15;;;14.68;64.72
37904;BME280;23738;50.422;18.758;2023-05-03T10:06:32;99429.28;;;14.72;63.79
37904;BME280;23738;50.422;18.758;2023-05-03T10:09:04;99428.17;;;14.70;65.04
37904;BME280;23738;50.422;18.758;2023-05-03T10:11:35;99427.23;;;14.87;65.11
37904;BME280;23738;50.422;18.758;2023-05-03T10:14:06;99427.27;;;15.11;64.55
37904;BME280;23738;50.422;18.758;2023-05-03T10:16:37;99421.61;;;15.17;64.29
37904;BME280;23738;50.422;18.758;2023-05-03T10:19:12;99428.25;;;15.27;64.87
37904;BME280;23738;50.422;18.758;2023-05-03T10:22:02;99427.17;;;15.35;63.30
37904;BME280;23738;50.422;18.758;2023-05-03T10:24:33;99425.59;;;15.31;62.65
37904;BME280;23738;50.422;18.758;2023-05-03T10:27:03;99423.55;;;15.29;62.99
37904;BME280;23738;50.422;18.758;2023-05-03T10:29:52;99425.40;;;15.40;63.37
37904;BME280;23738;50.422;18.758;2023-05-03T10:32:34;99424.02;;;15.56;62.43
37904;BME280;23738;50.422;18.758;2023-05-03T10:35:08;99420.14;;;15.60;62.23
37904;BME280;23738;50.422;18.758;2023-05-03T10:37:40;99419.20;;;15.67;62.19
37904;BME280;23738;50.422;18.758;2023-05-03T10:40:13;99416.42;;;15.76;62.29
37904;BME280;23738;50.422;18.758;2023-05-03T10:42:49;99417.14;;;15.82;62.60
37904;BME280;23738;50.422;18.758;2023-05-03T10:45:23;99422.20;;;15.88;62.69
37904;BME280;23738;50.422;18.758;2023-05-03T10:48:22;99423.27;;;15.93;62.37
37904;BME280;23738;50.422;18.758;2023-05-03T10:50:51;99429.60;;;15.98;62.09
37904;BME280;23738;50.422;18.758;2023-05-03T10:53:39;99429.41;;;16.03;62.26
37904;BME280;23738;50.422;18.758;2023-05-03T10:56:11;99428.41;;;16.16;62.25
37904;BME280;23738;50.422;18.758;2023-05-03T10:58:44;99427.98;;;16.18;60.38
37904;BME280;23738;50.422;18.758;2023-05-03T11:01:14;99423.16;;;16.08;60.33
37904;BME280;23738;50.422;18.758;2023-05-03T11:03:53;99422.05;;;16.08;61.34
37904;BME280;23738;50.422;18.758;2023-05-03T11:06:33;99413.64;;;16.17;61.56
37904;BME280;23738;50.422;18.758;2023-05-03T11:09:04;99421.42;;;16.25;61.38
37904;BME280;23738;50.422;18.758;2023-05-03T11:11:35;99421.56;;;16.21;59.96
37904;BME280;23738;50.422;18.758;2023-05-03T11:14:06;99423.48;;;15.94;59.41
37904;BME280;23738;50.422;18.758;2023-05-03T11:16:35;99429.52;;;15.69;60.59
37904;BME280;23738;50.422;18.758;2023-05-03T11:19:07;99429.41;;;15.64;61.14
37904;BME280;23738;50.422;18.758;2023-05-03T11:21:36;99433.02;;;15.65;61.12
37904;BME280;23738;50.422;18.758;2023-05-03T11:24:06;99435.48;;;15.64;61.08
37904;BME280;23738;50.422;18.758;2023-05-03T11:26:39;99434.67;;;15.59;60.86
37904;BME280;23738;50.422;18.758;2023-05-03T11:29:11;99436.50;;;15.56;61.22
37904;BME280;23738;50.422;18.758;2023-05-03T11:31:41;99436.23;;;15.53;60.40
37904;BME280;23738;50.422;18.758;2023-05-03T11:34:11;99437.06;;;15.46;60.46
37904;BME280;23738;50.422;18.758;2023-05-03T11:36:42;99442.05;;;15.42;60.35
37904;BME280;23738;50.422;18.758;2023-05-03T11:39:13;99436.85;;;15.32;59.61
37904;BME280;23738;50.422;18.758;2023-05-03T11:41:42;99435.27;;;15.19;60.30
37904;BME280;23738;50.422;18.758;2023-05-03T11:44:12;99432.73;;;15.20;60.76
37904;BME280;23738;50.422;18.758;2023-05-03T11:46:41;99435.39;;;15.29;60.54
37904;BME280;23738;50.422;18.758;2023-05-03T11:49:15;99436.23;;;15.32;60.48
37904;BME280;23738;50.422;18.758;2023-05-03T11:51:45;99432.04;;;15.36;60.64
37904;BME280;23738;50.422;18.758;2023-05-03T11:54:14;99433.68;;;15.38;60.44
37904;BME280;23738;50.422;18.758;2023-05-03T11:56:44;99433.06;;;15.41;60.44
37904;BME280;23738;50.422;18.758;2023-05-03T11:59:13;99423.80;;;15.47;60.47
37904;BME280;23738;50.422;18.758;2023-05-03T12:01:42;99423.88;;;15.47;60.33
37904;BME280;23738;50.422;18.758;2023-05-03T12:04:17;99422.11;;;15.55;60.18
37904;BME280;23738;50.422;18.758;2023-05-03T12:06:46;99419.27;;;15.61;60.19
37904;BME280;23738;50.422;18.758;2023-05-03T12:09:19;99419.58;;;15.66;60.07
37904;BME280;23738;50.422;18.758;2023-05-03T12:11:51;99418.59;;;15.66;59.56
37904;BME280;23738;50.422;18.758;2023-05-03T12:14:20;99415.73;;;15.64;59.82
37904;BME280;23738;50.422;18.758;2023-05-03T12:16:50;99418.52;;;15.72;59.84
37904;BME280;23738;50.422;18.758;2023-05-03T12:19:27;99415.31;;;15.77;59.46
37904;BME280;23738;50.422;18.758;2023-05-03T12:21:57;99415.20;;;15.84;59.59
37904;BME280;23738;50.422;18.758;2023-05-03T12:24:26;99416.83;;;15.94;59.49
37904;BME280;23738;50.422;18.758;2023-05-03T12:26:56;99413.70;;;16.04;59.32
37904;BME280;23738;50.422;18.758;2023-05-03T12:29:25;99411.96;;;16.06;59.14
37904;BME280;23738;50.422;18.758;2023-05-03T12:31:55;99410.77;;;16.12;59.42
37904;BME280;23738;50.422;18.758;2023-05-03T12:34:29;99405.70;;;16.13;58.58
37904;BME280;23738;50.422;18.758;2023-05-03T12:36:59;99398.45;;;16.03;58.10
37904;BME280;23738;50.422;18.758;2023-05-03T12:39:30;99403.86;;;15.98;58.43
37904;BME280;23738;50.422;18.758;2023-05-03T12:41:59;99399.92;;;15.98;58.47
37904;BME280;23738;50.422;18.758;2023-05-03T12:44:30;99398.05;;;16.03;58.53
37904;BME280;23738;50.422;18.758;2023-05-03T12:46:59;99394.63;;;16.16;58.39
37904;BME280;23738;50.422;18.758;2023-05-03T12:49:29;99387.88;;;16.36;58.65
37904;BME280;23738;50.422;18.758;2023-05-03T12:51:58;99392.90;;;16.44;58.42
37904;BME280;23738;50.422;18.758;2023-05-03T12:54:28;99396.66;;;16.42;57.29
37904;BME280;23738;50.422;18.758;2023-05-03T12:56:57;99395.79;;;16.36;57.44
37904;BME280;23738;50.422;18.758;2023-05-03T12:59:30;99396.38;;;16.36;57.56
37904;BME280;23738;50.422;18.758;2023-05-03T13:02:00;99394.71;;;16.38;57.43
37904;BME280;23738;50.422;18.758;2023-05-03T13:04:30;99395.86;;;16.39;57.05
37904;BME280;23738;50.422;18.758;2023-05-03T13:07:00;99393.89;;;16.39;56.93
37904;BME280;23738;50.422;18.758;2023-05-03T13:09:29;99388.63;;;16.40;56.83